createdAt,value
2017-12-05T00:00:46.670Z,10.00
2017-12-05T00:03:16.168Z,9.17
2017-12-05T00:05:43.908Z,10.03
2017-12-05T00:08:12.561Z,11.80
2017-12-05T00:10:40.388Z,11.43
2017-12-05T00:13:08.251Z,9.67
2017-12-05T00:15:36.059Z,14.27
2017-12-05T00:18:03.880Z,11.53
2017-12-05T00:20:31.683Z,8.77
2017-12-05T00:22:59.479Z,9.10
2017-12-05T00:25:28.030Z,12.73
2017-12-05T00:27:55.817Z,7.90
2017-12-05T00:30:24.358Z,8.17
2017-12-05T00:32:52.170Z,10.20
2017-12-05T00:35:20.673Z,11.50
2017-12-05T00:37:48.440Z,8.37
2017-12-05T00:40:16.188Z,8.93
2017-12-05T00:42:44.779Z,11.07
2017-12-05T00:45:12.567Z,8.40
2017-12-05T00:47:41.577Z,7.90
2017-12-05T00:50:09.452Z,9.60
2017-12-05T00:52:37.230Z,11.87
2017-12-05T00:55:04.968Z,8.80
2017-12-05T00:57:32.695Z,10.90
2017-12-05T01:00:00.436Z,8.73
2017-12-05T01:02:28.999Z,8.90
2017-12-05T01:04:56.786Z,9.87
2017-12-05T01:07:25.286Z,8.60
2017-12-05T01:09:53.111Z,10.67
2017-12-05T01:12:20.847Z,9.63
2017-12-05T01:14:48.559Z,8.53
2017-12-05T01:17:17.113Z,8.47
2017-12-05T01:19:44.911Z,11.80
2017-12-05T01:22:12.658Z,9.77
2017-12-05T01:24:41.203Z,13.43
2017-12-05T01:27:08.981Z,9.50
2017-12-05T01:29:36.707Z,8.93
2017-12-05T01:32:04.479Z,8.67
2017-12-05T01:34:32.289Z,12.70
2017-12-05T01:37:00.802Z,8.10
2017-12-05T01:39:28.613Z,11.00
2017-12-05T01:41:56.407Z,13.00
2017-12-05T01:44:24.239Z,8.43
2017-12-05T01:46:52.106Z,10.17
2017-12-05T01:49:19.900Z,12.17
2017-12-05T01:51:48.404Z,12.63
2017-12-05T01:54:16.223Z,10.87
2017-12-05T01:56:44.006Z,10.70
2017-12-05T01:59:12.658Z,10.57
2017-12-05T02:01:40.508Z,8.17
2017-12-05T02:04:08.322Z,8.73
2017-12-05T02:06:36.157Z,10.20
2017-12-05T02:09:03.988Z,9.30
2017-12-05T02:11:31.810Z,9.00
2017-12-05T02:14:00.387Z,9.10
2017-12-05T02:16:28.960Z,9.27
2017-12-05T02:18:56.794Z,10.40
2017-12-05T02:21:24.632Z,8.97
2017-12-05T02:23:52.404Z,8.13
2017-12-05T02:26:20.121Z,9.13
2017-12-05T02:28:47.868Z,9.77
2017-12-05T02:31:15.671Z,11.70
2017-12-05T02:33:43.509Z,8.90
2017-12-05T02:36:11.259Z,8.80
2017-12-05T02:38:39.059Z,13.03
2017-12-05T02:41:11.544Z,9.70
2017-12-05T02:43:39.343Z,8.07
2017-12-05T02:46:07.072Z,9.33
2017-12-05T02:48:34.902Z,7.13
2017-12-05T02:51:02.688Z,8.57
2017-12-05T02:53:31.227Z,8.03
2017-12-05T02:55:58.990Z,7.73
2017-12-05T02:58:26.766Z,11.40
2017-12-05T03:00:54.636Z,10.20
2017-12-05T03:03:22.489Z,9.50
2017-12-05T03:05:50.247Z,8.33
2017-12-05T03:08:18.048Z,11.90
2017-12-05T03:10:46.673Z,10.07
2017-12-05T03:13:14.400Z,12.27
2017-12-05T03:15:42.930Z,7.40
2017-12-05T03:18:10.726Z,7.40
2017-12-05T03:20:38.541Z,12.83
2017-12-05T03:23:08.113Z,8.73
2017-12-05T03:25:36.626Z,8.03
2017-12-05T03:28:04.411Z,6.53
2017-12-05T03:30:32.189Z,7.33
2017-12-05T03:32:59.956Z,10.47
2017-12-05T03:35:27.703Z,8.73
2017-12-05T03:37:55.532Z,8.70
2017-12-05T03:40:23.356Z,9.50
2017-12-05T03:42:51.119Z,8.60
2017-12-05T03:45:19.020Z,8.90
2017-12-05T03:47:46.818Z,8.23
2017-12-05T03:50:14.567Z,8.30
2017-12-05T03:52:42.386Z,8.47
2017-12-05T03:55:10.163Z,14.03
2017-12-05T03:57:38.789Z,11.27
2017-12-05T04:00:08.673Z,10.73
2017-12-05T04:02:36.426Z,12.13
2017-12-05T04:05:04.989Z,12.80
2017-12-05T04:07:32.837Z,9.63
2017-12-05T04:10:00.569Z,12.23
2017-12-05T04:12:28.322Z,11.80
2017-12-05T04:14:56.140Z,14.70
2017-12-05T04:17:23.931Z,16.50
2017-12-05T04:19:51.683Z,12.53
2017-12-05T04:22:20.236Z,14.70
2017-12-05T04:24:48.001Z,13.60
2017-12-05T04:27:15.720Z,17.40
2017-12-05T04:29:43.684Z,12.93
2017-12-05T04:32:11.452Z,14.50
2017-12-05T04:34:39.271Z,15.90
2017-12-05T04:37:07.849Z,15.43
2017-12-05T04:39:35.609Z,15.80
2017-12-05T04:42:03.441Z,11.57
2017-12-05T04:44:31.259Z,16.60
2017-12-05T04:46:59.808Z,15.77
2017-12-05T04:49:27.649Z,14.80
2017-12-05T04:51:56.006Z,15.50
2017-12-05T04:54:23.892Z,16.00
2017-12-05T04:56:51.684Z,13.13
2017-12-05T04:59:19.503Z,16.90
2017-12-05T05:01:47.392Z,18.90
2017-12-05T05:04:15.203Z,14.10
2017-12-05T05:06:43.775Z,18.00
2017-12-05T05:09:11.541Z,15.37
2017-12-05T05:11:39.315Z,16.10
2017-12-05T05:14:07.818Z,16.63
2017-12-05T05:16:35.592Z,13.80
2017-12-05T05:19:03.429Z,15.40
2017-12-05T05:21:32.036Z,16.33
2017-12-05T05:23:59.874Z,32.80
2017-12-05T05:26:28.420Z,16.77
2017-12-05T05:28:56.229Z,19.87
2017-12-05T05:31:25.699Z,15.00
2017-12-05T05:37:15.451Z,16.50
2017-12-05T05:39:45.992Z,18.13
2017-12-05T05:42:26.841Z,21.50
2017-12-05T05:44:55.048Z,15.03
2017-12-05T05:47:22.920Z,23.00
2017-12-05T05:49:56.168Z,16.27
2017-12-05T05:52:24.081Z,21.57
2017-12-05T05:54:51.912Z,17.23
2017-12-05T06:13:01.547Z,16.10
2017-12-05T06:15:33.017Z,19.37
2017-12-05T06:18:01.073Z,14.87
2017-12-05T06:20:28.886Z,18.10
2017-12-05T06:22:57.480Z,17.10
2017-12-05T06:25:26.848Z,16.13
2017-12-05T06:27:56.565Z,19.70
2017-12-05T06:30:24.422Z,17.67
2017-12-05T06:32:52.872Z,16.10
2017-12-05T06:35:20.696Z,15.20
2017-12-05T06:37:48.563Z,15.83
2017-12-05T06:40:17.150Z,17.13
2017-12-05T06:42:45.727Z,16.87
2017-12-05T06:45:13.608Z,15.50
2017-12-05T06:47:42.270Z,15.97
2017-12-05T06:50:10.156Z,18.27
2017-12-05T06:52:38.053Z,17.90
2017-12-05T06:55:05.925Z,19.00
2017-12-05T06:57:33.783Z,20.27
2017-12-05T07:02:54.363Z,20.50
2017-12-05T07:05:22.943Z,31.43
2017-12-05T07:07:51.612Z,21.63
2017-12-05T07:10:19.364Z,20.23
2017-12-05T07:12:47.148Z,19.83
2017-12-05T07:15:15.730Z,17.17
2017-12-05T07:17:43.643Z,17.00
2017-12-05T07:20:11.494Z,19.77
2017-12-05T07:22:39.274Z,19.70
2017-12-05T07:25:07.075Z,24.00
2017-12-05T07:27:34.915Z,14.03
2017-12-05T07:30:02.711Z,21.97
2017-12-05T07:32:30.549Z,21.13
2017-12-05T07:34:58.433Z,17.13
2017-12-05T07:37:26.166Z,17.60
2017-12-05T07:39:53.995Z,18.20
2017-12-05T07:42:22.587Z,12.23
2017-12-05T07:44:51.161Z,16.47
2017-12-05T07:47:19.709Z,16.37
2017-12-05T07:49:47.573Z,19.30
2017-12-05T07:52:15.398Z,19.83
2017-12-05T07:54:43.197Z,15.90
2017-12-05T07:57:10.982Z,15.90
2017-12-05T07:59:38.837Z,14.30
2017-12-05T08:02:06.692Z,15.97
2017-12-05T08:04:34.567Z,16.23
2017-12-05T08:07:02.489Z,15.90
2017-12-05T08:09:30.327Z,19.87
2017-12-05T08:11:58.970Z,20.03
2017-12-05T08:14:26.847Z,13.10
2017-12-05T08:16:54.738Z,14.40
2017-12-05T08:19:23.379Z,12.17
2017-12-05T08:21:51.212Z,23.73
2017-12-05T08:24:19.030Z,22.97
2017-12-05T08:26:46.894Z,14.10
2017-12-05T08:29:14.813Z,11.57
2017-12-05T08:31:42.592Z,11.00
2017-12-05T08:34:10.438Z,11.40
2017-12-05T08:36:38.266Z,16.00
2017-12-05T08:39:06.082Z,14.10
2017-12-05T08:41:34.664Z,15.10
2017-12-05T08:44:02.524Z,17.77
2017-12-05T08:46:30.350Z,12.67
2017-12-05T08:48:58.310Z,17.80
2017-12-05T08:51:26.142Z,17.17
2017-12-05T08:53:54.008Z,13.40
2017-12-05T08:56:21.828Z,18.83
2017-12-05T08:58:49.641Z,15.57
2017-12-05T09:01:17.525Z,18.13
2017-12-05T09:03:45.347Z,16.60
2017-12-05T09:06:13.166Z,15.30
2017-12-05T09:08:41.043Z,20.77
2017-12-05T09:11:08.885Z,15.40
2017-12-05T09:13:36.669Z,14.43
2017-12-05T09:16:05.112Z,14.33
2017-12-05T09:18:32.952Z,18.63
2017-12-05T09:21:00.789Z,34.60
2017-12-05T09:23:29.337Z,14.47
2017-12-05T09:25:57.197Z,16.90
2017-12-05T09:28:25.073Z,15.40
2017-12-05T09:30:53.013Z,16.40
2017-12-05T09:33:20.996Z,16.73
2017-12-05T09:35:48.759Z,21.10
2017-12-05T09:38:16.554Z,18.20
2017-12-05T09:40:45.168Z,18.07
2017-12-05T09:43:13.011Z,15.77
2017-12-05T09:45:41.619Z,22.23
2017-12-05T09:48:09.472Z,15.00
2017-12-05T09:50:37.296Z,19.63
2017-12-05T09:53:05.110Z,25.47
2017-12-05T09:55:32.968Z,18.70
2017-12-05T09:58:00.802Z,18.37
2017-12-05T10:00:28.736Z,15.73
2017-12-05T10:02:56.586Z,23.90
2017-12-05T10:05:24.463Z,16.80
2017-12-05T10:07:52.233Z,18.23
2017-12-05T10:10:20.091Z,17.67
2017-12-05T10:12:47.965Z,18.67
2017-12-05T10:15:15.750Z,19.00
2017-12-05T10:17:43.558Z,18.53
2017-12-05T10:20:11.349Z,17.10
2017-12-05T10:22:39.176Z,21.00
2017-12-05T10:25:07.831Z,21.87
2017-12-05T10:27:35.723Z,22.90
2017-12-05T10:30:03.533Z,24.40
2017-12-05T10:32:31.358Z,33.00
2017-12-05T10:34:59.147Z,25.13
2017-12-05T10:37:26.955Z,26.07
2017-12-05T10:39:54.813Z,21.70
2017-12-05T10:42:22.614Z,24.87
2017-12-05T10:44:51.238Z,21.40
2017-12-05T10:47:19.101Z,26.33
2017-12-05T10:49:47.055Z,21.33
2017-12-05T10:52:14.858Z,22.20
2017-12-05T10:54:42.702Z,22.27
2017-12-05T10:57:10.611Z,19.80
2017-12-05T10:59:39.217Z,24.13
2017-12-05T11:02:07.138Z,19.37
2017-12-05T11:04:35.033Z,22.70
2017-12-05T11:07:09.710Z,18.93
2017-12-05T11:09:37.530Z,29.77
2017-12-05T11:12:05.547Z,22.03
2017-12-05T11:14:33.412Z,23.00
2017-12-05T11:17:01.342Z,21.90
2017-12-05T11:19:29.294Z,19.43
2017-12-05T11:21:57.304Z,23.37
2017-12-05T11:24:25.178Z,20.10
2017-12-05T11:26:53.181Z,18.43
2017-12-05T11:32:15.015Z,28.20
2017-12-05T11:34:42.913Z,22.80
2017-12-05T11:37:10.858Z,24.80
2017-12-05T11:39:38.704Z,21.57
2017-12-05T11:42:06.578Z,23.17
2017-12-05T11:44:34.401Z,21.10
2017-12-05T11:47:02.400Z,21.00
2017-12-05T11:49:30.275Z,27.97
2017-12-05T11:51:58.096Z,23.60
2017-12-05T11:54:25.952Z,22.30
2017-12-05T11:56:53.967Z,23.47
2017-12-05T11:59:21.816Z,22.70
2017-12-05T12:01:49.595Z,20.97
2017-12-05T12:04:17.459Z,22.90
2017-12-05T12:06:45.360Z,22.20
2017-12-05T12:09:14.043Z,19.77
2017-12-05T12:11:42.618Z,23.10
2017-12-05T12:14:11.236Z,24.00
2017-12-05T12:19:32.463Z,22.33
2017-12-05T12:22:00.277Z,20.50
2017-12-05T12:24:28.104Z,21.13
2017-12-05T12:26:55.954Z,21.53
2017-12-05T12:29:23.767Z,22.33
2017-12-05T12:31:51.520Z,22.33
2017-12-05T12:34:19.339Z,25.40
2017-12-05T12:36:47.204Z,26.20
2017-12-05T12:39:15.863Z,24.57
2017-12-05T12:41:45.012Z,33.30
2017-12-05T12:44:22.432Z,22.13
2017-12-05T12:50:00.375Z,22.13
2017-12-05T12:52:29.540Z,20.67
2017-12-05T12:54:57.408Z,24.37
2017-12-05T12:57:25.302Z,26.60
2017-12-05T12:59:54.871Z,23.00
2017-12-05T13:02:22.726Z,26.43
2017-12-05T13:04:53.283Z,36.73
2017-12-05T13:07:25.247Z,29.43
2017-12-05T13:09:55.991Z,22.03
2017-12-05T13:12:23.957Z,23.47
2017-12-05T13:15:24.039Z,27.40
2017-12-05T13:18:05.524Z,22.73
2017-12-05T13:20:34.209Z,31.67
2017-12-05T13:23:02.115Z,26.90
2017-12-05T13:25:29.909Z,24.60
2017-12-05T13:27:57.747Z,23.47
2017-12-05T13:30:32.789Z,26.60
2017-12-05T13:33:01.387Z,24.43
2017-12-05T13:35:29.171Z,23.83
2017-12-05T13:37:56.952Z,26.13
2017-12-05T13:40:27.045Z,27.10
2017-12-05T13:42:54.819Z,29.57
2017-12-05T13:45:22.588Z,23.63
2017-12-05T13:47:50.348Z,23.70
2017-12-05T13:50:18.110Z,27.40
2017-12-05T13:52:47.158Z,22.93
2017-12-05T13:55:14.979Z,34.23
2017-12-05T13:57:42.768Z,25.83
2017-12-05T14:00:10.703Z,22.60
2017-12-05T14:02:38.533Z,25.83
2017-12-05T14:05:07.142Z,23.47
2017-12-05T14:07:34.957Z,23.80
2017-12-05T14:10:04.866Z,21.90
2017-12-05T14:12:32.729Z,27.50
2017-12-05T14:15:01.373Z,25.67
2017-12-05T14:17:29.178Z,25.03
2017-12-05T14:19:57.029Z,24.17
2017-12-05T14:22:24.856Z,31.53
2017-12-05T14:24:52.625Z,24.03
2017-12-05T14:27:20.485Z,25.23
2017-12-05T14:29:48.253Z,27.40
2017-12-05T14:32:16.023Z,22.73
2017-12-05T14:34:43.796Z,35.63
2017-12-05T14:37:11.727Z,28.33
2017-12-05T14:39:40.351Z,29.90
2017-12-05T14:42:08.188Z,24.43
2017-12-05T14:44:35.944Z,23.40
2017-12-05T14:47:03.783Z,27.30
2017-12-05T14:49:31.612Z,29.00
2017-12-05T14:51:59.855Z,32.93
2017-12-05T14:54:28.921Z,25.83
2017-12-05T14:56:57.007Z,33.93
2017-12-05T14:59:24.876Z,30.50
2017-12-05T15:01:52.717Z,26.47
2017-12-05T15:04:20.478Z,26.80
2017-12-05T15:06:48.300Z,33.43
2017-12-05T15:09:16.859Z,26.87
2017-12-05T15:11:44.647Z,26.77
2017-12-05T15:14:12.431Z,34.97
2017-12-05T15:16:40.193Z,30.83
2017-12-05T15:19:08.026Z,32.63
2017-12-05T15:21:39.808Z,27.70
2017-12-05T15:24:07.615Z,29.33
2017-12-05T15:26:36.228Z,29.83
2017-12-05T15:29:04.068Z,29.63
2017-12-05T15:31:32.616Z,43.53
2017-12-05T15:34:00.623Z,35.27
2017-12-05T15:36:30.030Z,42.13
2017-12-05T15:38:58.200Z,38.07
2017-12-05T15:41:26.051Z,30.13
2017-12-05T15:43:53.938Z,26.20
2017-12-05T15:46:29.713Z,37.87
2017-12-05T15:48:57.434Z,31.30
2017-12-05T15:51:25.461Z,28.40
2017-12-05T15:53:53.469Z,37.53
2017-12-05T15:56:21.290Z,28.63
2017-12-05T16:09:22.344Z,30.57
2017-12-05T16:12:03.928Z,27.67
2017-12-05T16:14:31.762Z,33.60
2017-12-05T16:16:59.596Z,33.90
2017-12-05T16:19:27.913Z,29.40
2017-12-05T16:21:55.833Z,28.90
2017-12-05T16:24:23.706Z,32.10
2017-12-05T16:26:51.575Z,29.03
2017-12-05T16:29:19.378Z,34.77
2017-12-05T16:31:47.346Z,32.10
2017-12-05T16:34:15.129Z,38.50
2017-12-05T16:36:43.008Z,32.60
2017-12-05T16:39:10.836Z,26.93
2017-12-05T16:41:38.615Z,32.90
2017-12-05T16:44:06.548Z,31.63
2017-12-05T16:46:34.394Z,29.20
2017-12-05T16:49:03.305Z,30.57
2017-12-05T16:51:31.062Z,28.07
2017-12-05T16:53:59.071Z,28.60
2017-12-05T16:56:26.961Z,28.03
2017-12-05T16:58:55.085Z,31.97
2017-12-05T17:01:23.087Z,27.13
2017-12-05T17:03:50.963Z,27.60
2017-12-05T17:06:18.804Z,33.47
2017-12-05T17:08:46.840Z,37.67
2017-12-05T17:11:17.557Z,27.67
2017-12-05T17:13:46.749Z,31.23
2017-12-05T17:16:15.018Z,27.63
2017-12-05T17:18:43.833Z,30.63
2017-12-05T17:21:11.711Z,38.03
2017-12-05T17:23:39.525Z,34.93
2017-12-05T17:26:07.741Z,32.97
2017-12-05T17:28:35.560Z,37.30
2017-12-05T17:31:03.439Z,34.67
2017-12-05T17:33:31.307Z,30.23
2017-12-05T17:35:59.732Z,34.17
2017-12-05T17:38:27.691Z,37.10
2017-12-05T17:40:55.448Z,39.27
2017-12-05T17:43:23.302Z,37.80
2017-12-05T17:45:52.379Z,35.93
2017-12-05T17:48:22.094Z,38.27
2017-12-05T17:50:50.361Z,35.73
2017-12-05T17:53:21.521Z,38.00
2017-12-05T17:55:49.477Z,39.10
2017-12-05T17:58:18.118Z,35.00
2017-12-05T18:00:46.246Z,41.93
2017-12-05T18:03:14.147Z,46.13
2017-12-05T18:05:42.068Z,46.13
2017-12-05T18:11:54.497Z,33.90
2017-12-05T18:14:22.732Z,36.43
2017-12-05T18:16:56.404Z,37.70
2017-12-05T18:19:30.016Z,35.27
2017-12-05T18:21:59.927Z,39.53
2017-12-05T18:24:29.226Z,37.33
2017-12-05T18:26:57.511Z,34.37
2017-12-05T18:29:26.603Z,39.47
2017-12-05T18:31:56.700Z,36.77
2017-12-05T18:34:26.873Z,38.40
2017-12-05T18:36:55.046Z,42.07
2017-12-05T18:39:24.053Z,41.13
2017-12-05T18:41:54.143Z,43.20
2017-12-05T18:44:22.846Z,46.07
2017-12-05T18:46:53.269Z,40.93
2017-12-05T18:49:21.263Z,45.40
2017-12-05T18:51:52.302Z,44.87
2017-12-05T18:54:26.837Z,56.00
2017-12-05T18:56:55.164Z,42.60
2017-12-05T18:59:31.730Z,49.77
2017-12-05T19:02:00.507Z,43.50
2017-12-05T19:04:29.332Z,44.43
2017-12-05T19:06:58.160Z,41.20
2017-12-05T19:09:26.118Z,41.67
2017-12-05T19:12:03.887Z,41.77
2017-12-05T19:14:33.795Z,43.87
2017-12-05T19:17:02.470Z,43.07
2017-12-05T19:19:30.538Z,45.17
2017-12-05T19:21:58.922Z,47.27
2017-12-05T19:24:26.977Z,53.43
2017-12-05T19:26:55.261Z,38.40
2017-12-05T19:29:23.165Z,45.03
2017-12-05T19:31:51.216Z,47.53
2017-12-05T19:34:19.904Z,42.63
2017-12-05T19:36:48.565Z,42.43
2017-12-05T19:39:16.509Z,53.27
2017-12-05T19:41:44.495Z,45.13
2017-12-05T19:44:12.399Z,40.77
2017-12-05T19:46:49.169Z,45.63
2017-12-05T19:49:17.105Z,36.77
2017-12-05T19:51:45.490Z,38.03
2017-12-05T19:54:13.348Z,35.87
2017-12-05T19:56:42.242Z,38.60
2017-12-05T19:59:11.747Z,38.97
2017-12-05T20:01:39.572Z,43.87
2017-12-05T20:04:07.371Z,34.53
2017-12-05T20:06:36.025Z,34.60
2017-12-05T20:09:03.922Z,35.93
2017-12-05T20:11:31.896Z,34.50
2017-12-05T20:14:00.507Z,37.83
2017-12-05T20:16:28.367Z,34.90
2017-12-05T20:18:56.197Z,39.20
2017-12-05T20:21:24.073Z,39.80
2017-12-05T20:23:51.937Z,37.23
2017-12-05T20:26:20.587Z,38.73
2017-12-05T20:28:48.506Z,32.63
2017-12-05T20:31:16.498Z,36.50
2017-12-05T20:33:45.013Z,36.60
2017-12-05T20:36:12.891Z,33.70
2017-12-05T20:38:40.656Z,42.67
2017-12-05T20:41:08.507Z,37.30
2017-12-05T20:43:36.337Z,33.53
2017-12-05T20:46:13.709Z,34.57
2017-12-05T20:48:41.684Z,37.70
2017-12-05T20:51:09.568Z,32.97
2017-12-05T20:53:37.380Z,36.30
2017-12-05T20:56:05.173Z,41.57
2017-12-05T20:58:33.114Z,40.30
2017-12-05T21:01:00.916Z,37.80
2017-12-05T21:03:28.662Z,37.33
2017-12-05T21:05:56.405Z,46.00
2017-12-05T21:08:24.137Z,36.80
2017-12-05T21:10:51.949Z,35.30
2017-12-05T21:13:19.739Z,36.57
2017-12-05T21:15:47.498Z,40.93
2017-12-05T21:18:15.240Z,37.87
2017-12-05T21:20:42.971Z,42.33
2017-12-05T21:23:10.693Z,39.63
2017-12-05T21:25:38.536Z,34.97
2017-12-05T21:28:06.346Z,37.00
2017-12-05T21:30:34.073Z,35.57
2017-12-05T21:33:01.954Z,39.83
2017-12-05T21:35:29.767Z,41.13
2017-12-05T21:37:57.518Z,36.80
2017-12-05T21:40:25.304Z,34.90
2017-12-05T21:42:53.035Z,34.67
2017-12-05T21:45:20.756Z,44.03
2017-12-05T21:47:48.646Z,37.70
2017-12-05T21:50:16.448Z,36.03
2017-12-05T21:52:44.235Z,41.37
2017-12-05T21:55:12.077Z,40.03
2017-12-05T21:57:39.866Z,44.83
2017-12-05T22:00:07.653Z,42.90
2017-12-05T22:02:35.504Z,43.27
2017-12-05T22:05:03.968Z,37.77
2017-12-05T22:07:31.813Z,41.10
2017-12-05T22:09:59.573Z,31.13
2017-12-05T22:12:27.371Z,32.27
2017-12-05T22:14:55.192Z,32.10
2017-12-05T22:17:22.920Z,29.07
2017-12-05T22:19:50.796Z,34.13
2017-12-05T22:22:18.596Z,30.83
2017-12-05T22:24:47.177Z,30.60
2017-12-05T22:27:15.051Z,28.43
2017-12-05T22:29:43.618Z,29.73
2017-12-05T22:32:11.454Z,29.47
2017-12-05T22:34:39.213Z,26.83
2017-12-05T22:37:06.954Z,29.60
2017-12-05T22:39:34.824Z,28.60
2017-12-05T22:42:02.622Z,30.93
2017-12-05T22:44:30.422Z,25.77
2017-12-05T22:46:58.280Z,29.87
2017-12-05T22:49:26.011Z,24.00
2017-12-05T22:51:53.735Z,26.73
2017-12-05T22:54:21.519Z,27.90
2017-12-05T22:56:49.264Z,24.77
2017-12-05T22:59:17.057Z,25.80
2017-12-05T23:01:44.871Z,22.33
2017-12-05T23:04:12.650Z,21.50
2017-12-05T23:06:40.436Z,21.10
2017-12-05T23:09:08.305Z,21.70
2017-12-05T23:11:36.864Z,22.93
2017-12-05T23:14:04.651Z,19.70
2017-12-05T23:16:32.447Z,19.50
2017-12-05T23:19:00.194Z,22.33
2017-12-05T23:21:27.922Z,18.90
2017-12-05T23:23:55.721Z,22.47
2017-12-05T23:26:23.457Z,18.17
2017-12-05T23:28:51.206Z,20.27
2017-12-05T23:31:18.955Z,22.90
2017-12-05T23:33:46.706Z,19.80
2017-12-05T23:36:14.462Z,19.80
2017-12-05T23:38:42.282Z,19.77
2017-12-05T23:41:09.960Z,20.30
2017-12-05T23:43:37.648Z,20.37
2017-12-05T23:46:06.140Z,17.13
2017-12-05T23:48:33.821Z,16.30
2017-12-05T23:51:01.586Z,16.73
2017-12-05T23:53:29.439Z,19.40
2017-12-05T23:55:57.974Z,17.10
2017-12-05T23:58:25.765Z,19.97
